sensor_id;sensor_type;location;lat;lon;timestamp;P1;durP1;ratioP1;P2;durP2;ratioP2
47373;SDS011;33123;50.118;10.272;2022-10-14T00:00:43;7.72;;;6.03;;
47373;SDS011;33123;50.118;10.272;2022-10-14T00:03:09;7.20;;;5.78;;
47373;SDS011;33123;50.118;10.272;2022-10-14T00:05:39;5.30;;;4.85;;
47373;SDS011;33123;50.118;10.272;2022-10-14T00:08:07;8.13;;;5.63;;
47373;SDS011;33123;50.118;10.272;2022-10-14T00:10:35;6.47;;;5.95;;
47373;SDS011;33123;50.118;10.272;2022-10-14T00:13:03;5.35;;;4.93;;
47373;SDS011;33123;50.118;10.272;2022-10-14T00:15:30;7.30;;;6.05;;
47373;SDS011;33123;50.118;10.272;2022-10-14T00:17:57;9.00;;;5.68;;
47373;SDS011;33123;50.118;10.272;2022-10-14T00:20:23;10.05;;;5.43;;
47373;SDS011;33123;50.118;10.272;2022-10-14T00:22:55;6.25;;;5.20;;
47373;SDS011;33123;50.118;10.272;2022-10-14T00:25:21;7.38;;;4.80;;
47373;SDS011;33123;50.118;10.272;2022-10-14T00:27:50;7.38;;;6.55;;
47373;SDS011;33123;50.118;10.272;2022-10-14T00:30:16;5.63;;;5.13;;
47373;SDS011;33123;50.118;10.272;2022-10-14T00:32:43;5.78;;;5.15;;
47373;SDS011;33123;50.118;10.272;2022-10-14T00:35:10;5.55;;;5.05;;
47373;SDS011;33123;50.118;10.272;2022-10-14T00:37:37;6.80;;;5.63;;
47373;SDS011;33123;50.118;10.272;2022-10-14T00:40:05;6.13;;;4.65;;
47373;SDS011;33123;50.118;10.272;2022-10-14T00:42:32;6.60;;;5.05;;
47373;SDS011;33123;50.118;10.272;2022-10-14T00:45:00;6.43;;;5.30;;
47373;SDS011;33123;50.118;10.272;2022-10-14T00:47:36;5.30;;;4.78;;
47373;SDS011;33123;50.118;10.272;2022-10-14T00:50:04;6.95;;;5.30;;
47373;SDS011;33123;50.118;10.272;2022-10-14T00:52:31;7.53;;;6.25;;
47373;SDS011;33123;50.118;10.272;2022-10-14T00:54:59;6.85;;;5.57;;
47373;SDS011;33123;50.118;10.272;2022-10-14T00:57:29;7.15;;;5.22;;
47373;SDS011;33123;50.118;10.272;2022-10-14T00:59:59;5.40;;;4.85;;
47373;SDS011;33123;50.118;10.272;2022-10-14T01:02:28;7.90;;;7.05;;
47373;SDS011;33123;50.118;10.272;2022-10-14T01:04:55;7.38;;;6.25;;
47373;SDS011;33123;50.118;10.272;2022-10-14T01:07:25;6.07;;;5.55;;
47373;SDS011;33123;50.118;10.272;2022-10-14T01:10:02;7.18;;;6.47;;
47373;SDS011;33123;50.118;10.272;2022-10-14T01:12:36;6.45;;;5.85;;
47373;SDS011;33123;50.118;10.272;2022-10-14T01:15:15;5.65;;;4.93;;
47373;SDS011;33123;50.118;10.272;2022-10-14T01:17:52;6.20;;;5.55;;
47373;SDS011;33123;50.118;10.272;2022-10-14T01:20:35;10.65;;;7.97;;
47373;SDS011;33123;50.118;10.272;2022-10-14T01:29:56;6.53;;;5.85;;
47373;SDS011;33123;50.118;10.272;2022-10-14T01:32:29;5.32;;;4.88;;
47373;SDS011;33123;50.118;10.272;2022-10-14T01:35:00;7.72;;;6.25;;
47373;SDS011;33123;50.118;10.272;2022-10-14T01:37:32;4.65;;;4.22;;
47373;SDS011;33123;50.118;10.272;2022-10-14T01:40:05;7.03;;;5.65;;
47373;SDS011;33123;50.118;10.272;2022-10-14T01:42:37;8.80;;;5.93;;
47373;SDS011;33123;50.118;10.272;2022-10-14T01:45:10;6.15;;;5.55;;
47373;SDS011;33123;50.118;10.272;2022-10-14T01:47:40;6.63;;;5.93;;
47373;SDS011;33123;50.118;10.272;2022-10-14T01:50:09;5.10;;;4.65;;
47373;SDS011;33123;50.118;10.272;2022-10-14T01:52:40;8.70;;;5.65;;
47373;SDS011;33123;50.118;10.272;2022-10-14T01:55:12;6.22;;;5.57;;
47373;SDS011;33123;50.118;10.272;2022-10-14T01:57:42;7.28;;;5.72;;
47373;SDS011;33123;50.118;10.272;2022-10-14T02:00:14;6.55;;;5.93;;
47373;SDS011;33123;50.118;10.272;2022-10-14T02:02:41;7.20;;;5.95;;
47373;SDS011;33123;50.118;10.272;2022-10-14T02:05:09;6.40;;;5.28;;
47373;SDS011;33123;50.118;10.272;2022-10-14T02:07:41;5.47;;;3.90;;
47373;SDS011;33123;50.118;10.272;2022-10-14T02:10:13;9.50;;;5.28;;
47373;SDS011;33123;50.118;10.272;2022-10-14T02:12:49;4.93;;;4.38;;
47373;SDS011;33123;50.118;10.272;2022-10-14T02:15:28;8.50;;;4.65;;
47373;SDS011;33123;50.118;10.272;2022-10-14T02:18:00;4.18;;;3.70;;
47373;SDS011;33123;50.118;10.272;2022-10-14T02:23:02;7.70;;;4.82;;
47373;SDS011;33123;50.118;10.272;2022-10-14T02:28:02;3.50;;;3.20;;
47373;SDS011;33123;50.118;10.272;2022-10-14T02:30:35;5.03;;;4.45;;
47373;SDS011;33123;50.118;10.272;2022-10-14T02:33:05;7.30;;;4.70;;
47373;SDS011;33123;50.118;10.272;2022-10-14T02:35:33;3.40;;;3.10;;
47373;SDS011;33123;50.118;10.272;2022-10-14T02:38:01;5.68;;;5.13;;
47373;SDS011;33123;50.118;10.272;2022-10-14T02:40:32;3.67;;;3.38;;
47373;SDS011;33123;50.118;10.272;2022-10-14T02:43:02;4.35;;;3.95;;
47373;SDS011;33123;50.118;10.272;2022-10-14T02:45:32;3.33;;;3.10;;
47373;SDS011;33123;50.118;10.272;2022-10-14T02:48:00;4.50;;;4.07;;
47373;SDS011;33123;50.118;10.272;2022-10-14T02:50:27;5.10;;;3.58;;
47373;SDS011;33123;50.118;10.272;2022-10-14T02:52:53;4.10;;;3.55;;
47373;SDS011;33123;50.118;10.272;2022-10-14T02:55:20;3.55;;;3.22;;
47373;SDS011;33123;50.118;10.272;2022-10-14T02:57:47;4.63;;;3.83;;
47373;SDS011;33123;50.118;10.272;2022-10-14T03:00:13;4.07;;;3.67;;
47373;SDS011;33123;50.118;10.272;2022-10-14T03:02:40;6.25;;;4.28;;
47373;SDS011;33123;50.118;10.272;2022-10-14T03:05:08;5.07;;;4.47;;
47373;SDS011;33123;50.118;10.272;2022-10-14T03:07:35;4.38;;;3.22;;
47373;SDS011;33123;50.118;10.272;2022-10-14T03:10:02;4.03;;;3.65;;
47373;SDS011;33123;50.118;10.272;2022-10-14T03:12:29;5.40;;;3.47;;
47373;SDS011;33123;50.118;10.272;2022-10-14T03:14:56;3.75;;;3.30;;
47373;SDS011;33123;50.118;10.272;2022-10-14T03:17:22;3.80;;;3.47;;
47373;SDS011;33123;50.118;10.272;2022-10-14T03:19:49;4.55;;;3.35;;
47373;SDS011;33123;50.118;10.272;2022-10-14T03:22:17;4.47;;;3.47;;
47373;SDS011;33123;50.118;10.272;2022-10-14T03:24:44;6.85;;;3.80;;
47373;SDS011;33123;50.118;10.272;2022-10-14T03:27:10;3.28;;;3.03;;
47373;SDS011;33123;50.118;10.272;2022-10-14T03:29:37;5.40;;;3.88;;
47373;SDS011;33123;50.118;10.272;2022-10-14T03:32:03;3.78;;;3.40;;
47373;SDS011;33123;50.118;10.272;2022-10-14T03:34:30;5.78;;;3.13;;
47373;SDS011;33123;50.118;10.272;2022-10-14T03:36:57;6.28;;;3.45;;
47373;SDS011;33123;50.118;10.272;2022-10-14T03:42:46;4.85;;;3.95;;
47373;SDS011;33123;50.118;10.272;2022-10-14T03:45:13;6.65;;;3.45;;
47373;SDS011;33123;50.118;10.272;2022-10-14T03:47:40;4.22;;;3.00;;
47373;SDS011;33123;50.118;10.272;2022-10-14T03:50:07;5.50;;;5.00;;
47373;SDS011;33123;50.118;10.272;2022-10-14T03:52:34;3.78;;;3.35;;
47373;SDS011;33123;50.118;10.272;2022-10-14T03:55:00;7.72;;;3.28;;
47373;SDS011;33123;50.118;10.272;2022-10-14T03:57:27;4.50;;;3.97;;
47373;SDS011;33123;50.118;10.272;2022-10-14T03:59:55;4.30;;;3.80;;
47373;SDS011;33123;50.118;10.272;2022-10-14T04:02:22;4.75;;;3.85;;
47373;SDS011;33123;50.118;10.272;2022-10-14T04:04:49;4.35;;;3.50;;
47373;SDS011;33123;50.118;10.272;2022-10-14T04:07:15;4.28;;;3.33;;
47373;SDS011;33123;50.118;10.272;2022-10-14T04:09:42;4.70;;;3.65;;
47373;SDS011;33123;50.118;10.272;2022-10-14T04:12:08;2.72;;;2.50;;
47373;SDS011;33123;50.118;10.272;2022-10-14T04:14:35;8.75;;;6.13;;
47373;SDS011;33123;50.118;10.272;2022-10-14T04:17:03;6.05;;;3.55;;
47373;SDS011;33123;50.118;10.272;2022-10-14T04:19:30;3.00;;;2.67;;
47373;SDS011;33123;50.118;10.272;2022-10-14T04:21:56;3.10;;;2.55;;
47373;SDS011;33123;50.118;10.272;2022-10-14T04:24:23;3.33;;;3.03;;
47373;SDS011;33123;50.118;10.272;2022-10-14T04:26:50;3.63;;;2.80;;
47373;SDS011;33123;50.118;10.272;2022-10-14T04:29:17;3.25;;;2.55;;
47373;SDS011;33123;50.118;10.272;2022-10-14T04:31:43;4.88;;;4.35;;
47373;SDS011;33123;50.118;10.272;2022-10-14T04:34:11;3.90;;;3.33;;
47373;SDS011;33123;50.118;10.272;2022-10-14T04:36:38;5.18;;;2.80;;
47373;SDS011;33123;50.118;10.272;2022-10-14T04:39:05;4.13;;;3.75;;
47373;SDS011;33123;50.118;10.272;2022-10-14T04:41:31;3.97;;;3.60;;
47373;SDS011;33123;50.118;10.272;2022-10-14T04:43:58;5.72;;;5.07;;
47373;SDS011;33123;50.118;10.272;2022-10-14T04:46:25;5.75;;;3.60;;
47373;SDS011;33123;50.118;10.272;2022-10-14T04:48:51;13.60;;;4.65;;
47373;SDS011;33123;50.118;10.272;2022-10-14T04:51:19;13.63;;;9.27;;
47373;SDS011;33123;50.118;10.272;2022-10-14T04:53:46;26.65;;;18.67;;
47373;SDS011;33123;50.118;10.272;2022-10-14T04:56:12;7.38;;;6.60;;
47373;SDS011;33123;50.118;10.272;2022-10-14T04:58:39;5.35;;;4.03;;
47373;SDS011;33123;50.118;10.272;2022-10-14T05:01:05;3.55;;;3.25;;
47373;SDS011;33123;50.118;10.272;2022-10-14T05:03:32;5.85;;;4.50;;
47373;SDS011;33123;50.118;10.272;2022-10-14T05:05:58;16.98;;;14.93;;
47373;SDS011;33123;50.118;10.272;2022-10-14T05:08:26;14.57;;;12.88;;
47373;SDS011;33123;50.118;10.272;2022-10-14T05:10:53;10.27;;;9.27;;
47373;SDS011;33123;50.118;10.272;2022-10-14T05:13:19;12.40;;;9.02;;
47373;SDS011;33123;50.118;10.272;2022-10-14T05:15:46;6.10;;;5.30;;
47373;SDS011;33123;50.118;10.272;2022-10-14T05:18:13;4.97;;;4.45;;
47373;SDS011;33123;50.118;10.272;2022-10-14T05:20:39;6.35;;;5.80;;
47373;SDS011;33123;50.118;10.272;2022-10-14T05:23:06;5.13;;;4.47;;
47373;SDS011;33123;50.118;10.272;2022-10-14T05:25:34;6.18;;;5.57;;
47373;SDS011;33123;50.118;10.272;2022-10-14T05:28:00;5.18;;;4.72;;
47373;SDS011;33123;50.118;10.272;2022-10-14T05:30:27;7.55;;;6.43;;
47373;SDS011;33123;50.118;10.272;2022-10-14T05:32:53;9.38;;;6.78;;
47373;SDS011;33123;50.118;10.272;2022-10-14T05:35:20;8.60;;;7.30;;
47373;SDS011;33123;50.118;10.272;2022-10-14T05:37:47;13.88;;;11.43;;
47373;SDS011;33123;50.118;10.272;2022-10-14T05:40:13;12.15;;;11.13;;
47373;SDS011;33123;50.118;10.272;2022-10-14T05:42:41;9.98;;;9.00;;
47373;SDS011;33123;50.118;10.272;2022-10-14T05:45:08;10.68;;;8.45;;
47373;SDS011;33123;50.118;10.272;2022-10-14T05:47:35;6.43;;;5.72;;
47373;SDS011;33123;50.118;10.272;2022-10-14T05:50:02;10.90;;;9.82;;
47373;SDS011;33123;50.118;10.272;2022-10-14T05:52:29;5.60;;;5.03;;
47373;SDS011;33123;50.118;10.272;2022-10-14T05:54:57;4.63;;;3.72;;
47373;SDS011;33123;50.118;10.272;2022-10-14T05:57:23;9.85;;;9.05;;
47373;SDS011;33123;50.118;10.272;2022-10-14T05:59:51;4.63;;;4.25;;
47373;SDS011;33123;50.118;10.272;2022-10-14T06:02:18;9.48;;;6.32;;
47373;SDS011;33123;50.118;10.272;2022-10-14T06:04:44;19.88;;;15.27;;
47373;SDS011;33123;50.118;10.272;2022-10-14T06:07:11;10.35;;;4.30;;
47373;SDS011;33123;50.118;10.272;2022-10-14T06:09:39;4.13;;;3.67;;
47373;SDS011;33123;50.118;10.272;2022-10-14T06:12:05;6.40;;;5.05;;
47373;SDS011;33123;50.118;10.272;2022-10-14T06:14:32;4.32;;;3.92;;
47373;SDS011;33123;50.118;10.272;2022-10-14T06:17:00;6.82;;;6.22;;
47373;SDS011;33123;50.118;10.272;2022-10-14T06:19:27;5.82;;;5.13;;
47373;SDS011;33123;50.118;10.272;2022-10-14T06:21:55;10.60;;;8.95;;
47373;SDS011;33123;50.118;10.272;2022-10-14T06:24:22;7.35;;;6.68;;
47373;SDS011;33123;50.118;10.272;2022-10-14T06:26:49;5.30;;;4.80;;
47373;SDS011;33123;50.118;10.272;2022-10-14T06:29:15;7.78;;;5.07;;
47373;SDS011;33123;50.118;10.272;2022-10-14T06:31:42;12.40;;;7.07;;
47373;SDS011;33123;50.118;10.272;2022-10-14T06:34:10;4.32;;;3.92;;
47373;SDS011;33123;50.118;10.272;2022-10-14T06:36:37;6.18;;;5.30;;
47373;SDS011;33123;50.118;10.272;2022-10-14T06:42:01;5.97;;;4.78;;
47373;SDS011;33123;50.118;10.272;2022-10-14T06:44:28;4.35;;;3.92;;
47373;SDS011;33123;50.118;10.272;2022-10-14T06:46:55;3.67;;;3.38;;
47373;SDS011;33123;50.118;10.272;2022-10-14T06:49:23;5.93;;;4.97;;
47373;SDS011;33123;50.118;10.272;2022-10-14T06:51:49;5.00;;;4.50;;
47373;SDS011;33123;50.118;10.272;2022-10-14T06:54:16;5.28;;;4.28;;
47373;SDS011;33123;50.118;10.272;2022-10-14T06:56:42;4.80;;;4.40;;
47373;SDS011;33123;50.118;10.272;2022-10-14T06:59:09;4.57;;;4.10;;
47373;SDS011;33123;50.118;10.272;2022-10-14T07:01:36;6.45;;;5.20;;
47373;SDS011;33123;50.118;10.272;2022-10-14T07:04:03;6.95;;;5.10;;
47373;SDS011;33123;50.118;10.272;2022-10-14T07:06:31;5.13;;;4.45;;
47373;SDS011;33123;50.118;10.272;2022-10-14T07:11:58;5.85;;;4.65;;
47373;SDS011;33123;50.118;10.272;2022-10-14T07:14:25;4.40;;;4.00;;
47373;SDS011;33123;50.118;10.272;2022-10-14T07:16:52;4.60;;;4.07;;
47373;SDS011;33123;50.118;10.272;2022-10-14T07:19:18;6.93;;;4.68;;
47373;SDS011;33123;50.118;10.272;2022-10-14T07:21:46;4.03;;;3.65;;
47373;SDS011;33123;50.118;10.272;2022-10-14T07:24:13;6.30;;;5.80;;
47373;SDS011;33123;50.118;10.272;2022-10-14T07:26:39;5.45;;;3.58;;
47373;SDS011;33123;50.118;10.272;2022-10-14T07:29:06;3.58;;;3.13;;
47373;SDS011;33123;50.118;10.272;2022-10-14T07:31:33;4.10;;;3.53;;
47373;SDS011;33123;50.118;10.272;2022-10-14T07:37:23;4.10;;;3.53;;
47373;SDS011;33123;50.118;10.272;2022-10-14T07:39:50;5.18;;;4.43;;
47373;SDS011;33123;50.118;10.272;2022-10-14T07:42:16;4.15;;;3.75;;
47373;SDS011;33123;50.118;10.272;2022-10-14T07:44:43;6.60;;;3.22;;
47373;SDS011;33123;50.118;10.272;2022-10-14T07:47:10;4.97;;;4.50;;
47373;SDS011;33123;50.118;10.272;2022-10-14T07:49:37;5.07;;;4.57;;
47373;SDS011;33123;50.118;10.272;2022-10-14T07:52:03;3.97;;;3.58;;
47373;SDS011;33123;50.118;10.272;2022-10-14T07:54:31;5.80;;;4.72;;
47373;SDS011;33123;50.118;10.272;2022-10-14T07:56:58;5.30;;;4.65;;
47373;SDS011;33123;50.118;10.272;2022-10-14T07:59:25;5.65;;;5.07;;
47373;SDS011;33123;50.118;10.272;2022-10-14T08:01:51;12.25;;;5.47;;
47373;SDS011;33123;50.118;10.272;2022-10-14T08:04:20;4.80;;;4.03;;
47373;SDS011;33123;50.118;10.272;2022-10-14T08:06:47;5.70;;;5.13;;
47373;SDS011;33123;50.118;10.272;2022-10-14T08:09:14;4.50;;;3.85;;
47373;SDS011;33123;50.118;10.272;2022-10-14T08:11:43;4.30;;;3.33;;
47373;SDS011;33123;50.118;10.272;2022-10-14T08:14:09;5.43;;;4.82;;
47373;SDS011;33123;50.118;10.272;2022-10-14T08:16:36;6.53;;;4.97;;
47373;SDS011;33123;50.118;10.272;2022-10-14T08:19:05;4.03;;;3.38;;
47373;SDS011;33123;50.118;10.272;2022-10-14T08:21:32;4.22;;;3.83;;
47373;SDS011;33123;50.118;10.272;2022-10-14T08:23:59;7.07;;;4.35;;
47373;SDS011;33123;50.118;10.272;2022-10-14T08:26:26;8.75;;;3.75;;
47373;SDS011;33123;50.118;10.272;2022-10-14T08:28:56;8.95;;;5.13;;
47373;SDS011;33123;50.118;10.272;2022-10-14T08:31:23;4.38;;;3.97;;
47373;SDS011;33123;50.118;10.272;2022-10-14T08:33:50;4.53;;;4.13;;
47373;SDS011;33123;50.118;10.272;2022-10-14T08:36:18;4.97;;;4.47;;
47373;SDS011;33123;50.118;10.272;2022-10-14T08:38:45;4.32;;;3.92;;
47373;SDS011;33123;50.118;10.272;2022-10-14T08:41:17;3.58;;;3.28;;
47373;SDS011;33123;50.118;10.272;2022-10-14T08:43:51;5.50;;;5.00;;
47373;SDS011;33123;50.118;10.272;2022-10-14T08:46:34;5.20;;;3.22;;
47373;SDS011;33123;50.118;10.272;2022-10-14T08:49:05;3.85;;;3.47;;
47373;SDS011;33123;50.118;10.272;2022-10-14T08:51:39;4.85;;;4.25;;
47373;SDS011;33123;50.118;10.272;2022-10-14T08:54:10;5.85;;;5.03;;
47373;SDS011;33123;50.118;10.272;2022-10-14T08:56:40;4.32;;;3.40;;
47373;SDS011;33123;50.118;10.272;2022-10-14T08:59:10;3.95;;;3.42;;
47373;SDS011;33123;50.118;10.272;2022-10-14T09:01:43;3.92;;;3.65;;
47373;SDS011;33123;50.118;10.272;2022-10-14T09:04:16;3.70;;;3.40;;
47373;SDS011;33123;50.118;10.272;2022-10-14T09:06:44;6.53;;;4.13;;
47373;SDS011;33123;50.118;10.272;2022-10-14T09:09:16;3.50;;;3.10;;
47373;SDS011;33123;50.118;10.272;2022-10-14T09:11:48;5.55;;;4.22;;
47373;SDS011;33123;50.118;10.272;2022-10-14T09:14:20;3.97;;;3.58;;
47373;SDS011;33123;50.118;10.272;2022-10-14T09:16:52;5.30;;;3.55;;
47373;SDS011;33123;50.118;10.272;2022-10-14T09:19:24;7.82;;;3.22;;
47373;SDS011;33123;50.118;10.272;2022-10-14T09:21:55;5.47;;;4.40;;
47373;SDS011;33123;50.118;10.272;2022-10-14T09:24:24;4.13;;;3.70;;
47373;SDS011;33123;50.118;10.272;2022-10-14T09:26:53;4.93;;;4.22;;
47373;SDS011;33123;50.118;10.272;2022-10-14T09:29:23;4.70;;;4.05;;
47373;SDS011;33123;50.118;10.272;2022-10-14T09:31:54;8.68;;;3.90;;
47373;SDS011;33123;50.118;10.272;2022-10-14T09:34:25;5.10;;;3.28;;
47373;SDS011;33123;50.118;10.272;2022-10-14T09:36:57;3.33;;;3.00;;
47373;SDS011;33123;50.118;10.272;2022-10-14T09:39:26;5.38;;;3.58;;
47373;SDS011;33123;50.118;10.272;2022-10-14T09:41:53;5.40;;;4.85;;
47373;SDS011;33123;50.118;10.272;2022-10-14T09:44:22;3.70;;;3.17;;
47373;SDS011;33123;50.118;10.272;2022-10-14T09:46:53;7.05;;;4.18;;
47373;SDS011;33123;50.118;10.272;2022-10-14T09:49:28;5.97;;;4.07;;
47373;SDS011;33123;50.118;10.272;2022-10-14T09:51:59;9.73;;;3.85;;
47373;SDS011;33123;50.118;10.272;2022-10-14T09:54:27;4.00;;;3.25;;
47373;SDS011;33123;50.118;10.272;2022-10-14T09:57:01;4.00;;;3.70;;
47373;SDS011;33123;50.118;10.272;2022-10-14T09:59:29;4.05;;;3.45;;
47373;SDS011;33123;50.118;10.272;2022-10-14T10:01:59;4.53;;;3.58;;
47373;SDS011;33123;50.118;10.272;2022-10-14T10:04:34;3.25;;;2.95;;
47373;SDS011;33123;50.118;10.272;2022-10-14T10:07:03;5.07;;;3.53;;
47373;SDS011;33123;50.118;10.272;2022-10-14T10:09:31;9.82;;;4.82;;
47373;SDS011;33123;50.118;10.272;2022-10-14T10:11:58;6.22;;;3.53;;
47373;SDS011;33123;50.118;10.272;2022-10-14T10:14:25;4.00;;;3.63;;
47373;SDS011;33123;50.118;10.272;2022-10-14T10:19:43;3.20;;;2.72;;
47373;SDS011;33123;50.118;10.272;2022-10-14T10:22:19;3.25;;;2.95;;
47373;SDS011;33123;50.118;10.272;2022-10-14T10:24:48;5.25;;;2.55;;
47373;SDS011;33123;50.118;10.272;2022-10-14T10:27:19;3.80;;;2.10;;
47373;SDS011;33123;50.118;10.272;2022-10-14T10:29:48;2.28;;;2.08;;
47373;SDS011;33123;50.118;10.272;2022-10-14T10:32:17;4.05;;;3.15;;
47373;SDS011;33123;50.118;10.272;2022-10-14T10:35:01;3.78;;;2.97;;
47373;SDS011;33123;50.118;10.272;2022-10-14T10:37:36;2.77;;;2.57;;
47373;SDS011;33123;50.118;10.272;2022-10-14T10:40:26;2.33;;;2.13;;
47373;SDS011;33123;50.118;10.272;2022-10-14T10:43:12;3.67;;;3.28;;
47373;SDS011;33123;50.118;10.272;2022-10-14T10:45:59;2.95;;;2.67;;
47373;SDS011;33123;50.118;10.272;2022-10-14T10:48:37;2.58;;;2.38;;
47373;SDS011;33123;50.118;10.272;2022-10-14T10:51:11;2.08;;;1.92;;
47373;SDS011;33123;50.118;10.272;2022-10-14T10:56:34;2.63;;;2.10;;
47373;SDS011;33123;50.118;10.272;2022-10-14T10:59:21;3.55;;;2.70;;
47373;SDS011;33123;50.118;10.272;2022-10-14T11:02:02;3.33;;;2.60;;
47373;SDS011;33123;50.118;10.272;2022-10-14T11:04:46;2.45;;;2.20;;
47373;SDS011;33123;50.118;10.272;2022-10-14T11:07:20;2.65;;;2.00;;
47373;SDS011;33123;50.118;10.272;2022-10-14T11:10:14;7.25;;;4.20;;
47373;SDS011;33123;50.118;10.272;2022-10-14T11:13:05;5.65;;;2.20;;
47373;SDS011;33123;50.118;10.272;2022-10-14T11:15:48;4.93;;;2.38;;
47373;SDS011;33123;50.118;10.272;2022-10-14T11:18:24;2.47;;;1.95;;
47373;SDS011;33123;50.118;10.272;2022-10-14T11:21:04;3.65;;;2.88;;
47373;SDS011;33123;50.118;10.272;2022-10-14T11:23:42;2.80;;;2.60;;
47373;SDS011;33123;50.118;10.272;2022-10-14T11:26:16;2.67;;;1.98;;
47373;SDS011;33123;50.118;10.272;2022-10-14T11:28:58;2.70;;;2.47;;
47373;SDS011;33123;50.118;10.272;2022-10-14T11:31:35;2.55;;;1.95;;
47373;SDS011;33123;50.118;10.272;2022-10-14T11:34:11;1.70;;;1.60;;
47373;SDS011;33123;50.118;10.272;2022-10-14T11:36:51;2.97;;;2.07;;
47373;SDS011;33123;50.118;10.272;2022-10-14T11:39:25;4.20;;;2.10;;
47373;SDS011;33123;50.118;10.272;2022-10-14T11:42:03;2.90;;;2.25;;
47373;SDS011;33123;50.118;10.272;2022-10-14T11:44:39;2.75;;;2.13;;
47373;SDS011;33123;50.118;10.272;2022-10-14T11:47:08;3.00;;;2.20;;
47373;SDS011;33123;50.118;10.272;2022-10-14T11:49:41;6.43;;;2.33;;
47373;SDS011;33123;50.118;10.272;2022-10-14T11:54:43;1.83;;;1.73;;
47373;SDS011;33123;50.118;10.272;2022-10-14T11:57:15;3.60;;;1.90;;
47373;SDS011;33123;50.118;10.272;2022-10-14T11:59:50;3.38;;;2.47;;
47373;SDS011;33123;50.118;10.272;2022-10-14T12:02:30;5.15;;;2.25;;
47373;SDS011;33123;50.118;10.272;2022-10-14T12:05:05;1.90;;;1.67;;
47373;SDS011;33123;50.118;10.272;2022-10-14T12:07:42;2.00;;;1.90;;
47373;SDS011;33123;50.118;10.272;2022-10-14T12:10:18;1.80;;;1.70;;
47373;SDS011;33123;50.118;10.272;2022-10-14T12:12:51;2.22;;;2.03;;
47373;SDS011;33123;50.118;10.272;2022-10-14T12:15:20;3.20;;;2.95;;
47373;SDS011;33123;50.118;10.272;2022-10-14T12:17:49;2.95;;;2.25;;
47373;SDS011;33123;50.118;10.272;2022-10-14T12:20:22;1.75;;;1.65;;
47373;SDS011;33123;50.118;10.272;2022-10-14T12:22:57;3.05;;;2.75;;
47373;SDS011;33123;50.118;10.272;2022-10-14T12:25:26;4.90;;;3.13;;
47373;SDS011;33123;50.118;10.272;2022-10-14T12:27:57;1.75;;;1.65;;
47373;SDS011;33123;50.118;10.272;2022-10-14T12:30:31;2.70;;;2.28;;
47373;SDS011;33123;50.118;10.272;2022-10-14T12:33:01;1.60;;;1.48;;
47373;SDS011;33123;50.118;10.272;2022-10-14T12:35:48;1.85;;;1.63;;
47373;SDS011;33123;50.118;10.272;2022-10-14T12:38:24;2.55;;;1.95;;
47373;SDS011;33123;50.118;10.272;2022-10-14T12:40:53;2.20;;;1.48;;
47373;SDS011;33123;50.118;10.272;2022-10-14T12:43:21;4.28;;;2.33;;
47373;SDS011;33123;50.118;10.272;2022-10-14T12:48:40;2.47;;;2.03;;
47373;SDS011;33123;50.118;10.272;2022-10-14T12:51:14;3.75;;;1.88;;
47373;SDS011;33123;50.118;10.272;2022-10-14T12:53:48;3.08;;;1.70;;
47373;SDS011;33123;50.118;10.272;2022-10-14T12:56:28;1.50;;;1.38;;
47373;SDS011;33123;50.118;10.272;2022-10-14T12:58:58;2.63;;;2.00;;
47373;SDS011;33123;50.118;10.272;2022-10-14T13:01:27;2.80;;;2.60;;
47373;SDS011;33123;50.118;10.272;2022-10-14T13:03:55;2.22;;;2.00;;
47373;SDS011;33123;50.118;10.272;2022-10-14T13:06:29;1.60;;;1.50;;
47373;SDS011;33123;50.118;10.272;2022-10-14T13:09:28;1.70;;;1.60;;
47373;SDS011;33123;50.118;10.272;2022-10-14T13:12:10;2.78;;;2.47;;
47373;SDS011;33123;50.118;10.272;2022-10-14T13:14:58;3.47;;;2.42;;
47373;SDS011;33123;50.118;10.272;2022-10-14T13:17:27;7.00;;;2.03;;
47373;SDS011;33123;50.118;10.272;2022-10-14T13:19:55;2.75;;;2.47;;
47373;SDS011;33123;50.118;10.272;2022-10-14T13:22:38;4.07;;;2.78;;
47373;SDS011;33123;50.118;10.272;2022-10-14T13:25:18;1.83;;;1.73;;
47373;SDS011;33123;50.118;10.272;2022-10-14T13:27:54;1.38;;;1.27;;
47373;SDS011;33123;50.118;10.272;2022-10-14T13:30:33;1.90;;;1.77;;
47373;SDS011;33123;50.118;10.272;2022-10-14T13:33:07;6.75;;;2.35;;
47373;SDS011;33123;50.118;10.272;2022-10-14T13:35:45;1.77;;;1.67;;
47373;SDS011;33123;50.118;10.272;2022-10-14T13:38:18;2.33;;;2.00;;
47373;SDS011;33123;50.118;10.272;2022-10-14T13:40:49;7.55;;;2.38;;
47373;SDS011;33123;50.118;10.272;2022-10-14T13:43:18;1.52;;;1.42;;
47373;SDS011;33123;50.118;10.272;2022-10-14T13:45:51;2.17;;;1.98;;
47373;SDS011;33123;50.118;10.272;2022-10-14T13:48:23;1.88;;;1.67;;
47373;SDS011;33123;50.118;10.272;2022-10-14T13:51:02;1.95;;;1.75;;
47373;SDS011;33123;50.118;10.272;2022-10-14T13:53:49;4.22;;;2.85;;
47373;SDS011;33123;50.118;10.272;2022-10-14T13:56:20;3.83;;;2.30;;
47373;SDS011;33123;50.118;10.272;2022-10-14T13:58:48;1.55;;;1.45;;
47373;SDS011;33123;50.118;10.272;2022-10-14T14:01:16;1.25;;;1.25;;
47373;SDS011;33123;50.118;10.272;2022-10-14T14:03:45;4.38;;;2.17;;
47373;SDS011;33123;50.118;10.272;2022-10-14T14:06:17;1.40;;;1.30;;
47373;SDS011;33123;50.118;10.272;2022-10-14T14:08:49;1.00;;;1.00;;
47373;SDS011;33123;50.118;10.272;2022-10-14T14:11:21;1.60;;;1.48;;
47373;SDS011;33123;50.118;10.272;2022-10-14T14:13:55;1.67;;;1.58;;
47373;SDS011;33123;50.118;10.272;2022-10-14T14:16:24;1.35;;;1.25;;
47373;SDS011;33123;50.118;10.272;2022-10-14T14:18:55;1.35;;;1.25;;
47373;SDS011;33123;50.118;10.272;2022-10-14T14:21:22;1.20;;;1.10;;
47373;SDS011;33123;50.118;10.272;2022-10-14T14:23:51;1.20;;;1.17;;
47373;SDS011;33123;50.118;10.272;2022-10-14T14:26:20;1.48;;;1.27;;
47373;SDS011;33123;50.118;10.272;2022-10-14T14:28:53;1.35;;;1.30;;
47373;SDS011;33123;50.118;10.272;2022-10-14T14:31:21;2.83;;;1.70;;
47373;SDS011;33123;50.118;10.272;2022-10-14T14:33:51;1.88;;;1.75;;
47373;SDS011;33123;50.118;10.272;2022-10-14T14:36:22;2.35;;;2.15;;
47373;SDS011;33123;50.118;10.272;2022-10-14T14:38:52;2.63;;;2.35;;
47373;SDS011;33123;50.118;10.272;2022-10-14T14:41:23;1.30;;;1.20;;
47373;SDS011;33123;50.118;10.272;2022-10-14T14:43:52;1.92;;;1.83;;
47373;SDS011;33123;50.118;10.272;2022-10-14T14:46:23;1.70;;;1.52;;
47373;SDS011;33123;50.118;10.272;2022-10-14T14:48:56;4.32;;;2.83;;
47373;SDS011;33123;50.118;10.272;2022-10-14T14:51:25;2.42;;;1.83;;
47373;SDS011;33123;50.118;10.272;2022-10-14T14:53:54;2.80;;;2.50;;
47373;SDS011;33123;50.118;10.272;2022-10-14T14:56:23;3.75;;;2.05;;
47373;SDS011;33123;50.118;10.272;2022-10-14T14:58:53;2.90;;;2.20;;
47373;SDS011;33123;50.118;10.272;2022-10-14T15:01:23;3.17;;;2.83;;
47373;SDS011;33123;50.118;10.272;2022-10-14T15:03:52;1.67;;;1.55;;
47373;SDS011;33123;50.118;10.272;2022-10-14T15:06:23;4.35;;;2.67;;
47373;SDS011;33123;50.118;10.272;2022-10-14T15:08:51;3.03;;;2.65;;
47373;SDS011;33123;50.118;10.272;2022-10-14T15:11:19;9.13;;;1.50;;
47373;SDS011;33123;50.118;10.272;2022-10-14T15:13:49;1.65;;;1.55;;
47373;SDS011;33123;50.118;10.272;2022-10-14T15:16:36;1.60;;;1.50;;
47373;SDS011;33123;50.118;10.272;2022-10-14T15:19:13;1.90;;;1.75;;
47373;SDS011;33123;50.118;10.272;2022-10-14T15:24:55;2.33;;;2.13;;
47373;SDS011;33123;50.118;10.272;2022-10-14T15:27:30;4.43;;;2.38;;
47373;SDS011;33123;50.118;10.272;2022-10-14T15:30:22;4.65;;;1.90;;